createdAt,value
2019-05-18T00:01:40.422Z,94271.00
2019-05-18T00:04:10.465Z,94269.00
2019-05-18T00:06:40.498Z,94269.00
2019-05-18T00:09:10.678Z,94262.00
2019-05-18T00:11:40.707Z,94266.00
2019-05-18T00:14:10.760Z,94264.00
2019-05-18T00:16:40.750Z,94259.00
2019-05-18T00:19:10.926Z,94265.00
2019-05-18T00:21:40.923Z,94269.00
2019-05-18T00:24:11.022Z,94261.00
2019-05-18T00:26:40.941Z,94265.00
2019-05-18T00:29:11.013Z,94273.00
2019-05-18T00:31:40.981Z,94270.00
2019-05-18T00:34:10.954Z,94261.00
2019-05-18T00:36:40.991Z,94273.00
2019-05-18T00:39:11.104Z,94266.00
2019-05-18T00:41:41.214Z,94268.00
2019-05-18T00:44:11.216Z,94260.00
2019-05-18T00:46:41.240Z,94259.00
2019-05-18T00:49:11.280Z,94256.00
2019-05-18T00:51:41.317Z,94263.00
2019-05-18T00:54:11.457Z,94257.00
2019-05-18T00:56:41.543Z,94263.00
2019-05-18T00:59:15.851Z,94261.00
2019-05-18T01:01:43.303Z,94260.00
2019-05-18T01:04:13.409Z,94265.00
2019-05-18T01:06:43.340Z,94255.00
2019-05-18T01:09:13.524Z,94261.00
2019-05-18T01:11:43.663Z,94249.00
2019-05-18T01:14:13.844Z,94258.00
2019-05-18T01:16:44.007Z,94264.00
2019-05-18T01:19:14.075Z,94253.00
2019-05-18T01:21:44.205Z,94251.00
2019-05-18T01:24:14.229Z,94252.00
2019-05-18T01:26:44.227Z,94255.00
2019-05-18T01:29:14.345Z,94265.00
2019-05-18T01:31:44.391Z,94258.00
2019-05-18T01:34:14.395Z,94250.00
2019-05-18T01:36:44.503Z,94249.00
2019-05-18T01:39:14.519Z,94250.00
2019-05-18T01:41:44.461Z,94253.00
2019-05-18T01:44:14.555Z,94252.00
2019-05-18T01:46:44.648Z,94263.00
2019-05-18T01:49:14.818Z,94252.00
2019-05-18T01:51:44.884Z,94242.00
2019-05-18T01:54:14.948Z,94250.00
2019-05-18T01:56:44.897Z,94259.00
2019-05-18T01:59:14.876Z,94250.00
2019-05-18T02:01:45.007Z,94243.00
2019-05-18T02:04:15.106Z,94246.00
2019-05-18T02:06:45.173Z,94237.00
2019-05-18T02:09:15.297Z,94236.00
2019-05-18T02:11:45.339Z,94236.00
2019-05-18T02:14:15.318Z,94240.00
2019-05-18T02:16:45.403Z,94232.00
2019-05-18T02:19:15.473Z,94231.00
2019-05-18T02:21:45.400Z,94224.00
2019-05-18T02:24:15.513Z,94230.00
2019-05-18T02:26:45.705Z,94236.00
2019-05-18T02:29:15.889Z,94221.00
2019-05-18T02:31:45.948Z,94225.00
2019-05-18T02:34:16.028Z,94210.00
2019-05-18T02:36:45.935Z,94217.00
2019-05-18T02:39:16.029Z,94217.00
2019-05-18T02:41:46.045Z,94226.00
2019-05-18T02:44:16.090Z,94221.00
2019-05-18T02:46:46.264Z,94218.00
2019-05-18T02:49:16.419Z,94214.00
2019-05-18T02:51:46.487Z,94221.00
2019-05-18T02:54:16.588Z,94212.00
2019-05-18T02:56:46.623Z,94220.00
2019-05-18T02:59:16.671Z,94219.00
2019-05-18T03:01:46.775Z,94225.00
2019-05-18T03:04:16.827Z,94224.00
2019-05-18T03:06:46.856Z,94218.00
2019-05-18T03:09:16.842Z,94220.00
2019-05-18T03:11:47.000Z,94222.00
2019-05-18T03:14:17.368Z,94219.00
2019-05-18T03:16:47.550Z,94220.00
2019-05-18T03:19:17.680Z,94225.00
2019-05-18T03:21:47.829Z,94223.00
2019-05-18T03:24:17.812Z,94230.00
2019-05-18T03:26:47.830Z,94231.00
2019-05-18T03:29:17.922Z,94235.00
2019-05-18T03:31:47.967Z,94234.00
2019-05-18T03:34:18.089Z,94230.00
2019-05-18T03:36:48.276Z,94229.00
2019-05-18T03:39:18.434Z,94235.00
2019-05-18T03:41:48.611Z,94240.00
2019-05-18T03:44:18.537Z,94239.00
2019-05-18T03:46:48.550Z,94241.00
2019-05-18T03:49:26.833Z,94247.00
2019-05-18T03:51:50.350Z,94250.00
2019-05-18T03:54:20.263Z,94252.00
2019-05-18T03:56:50.368Z,94257.00
2019-05-18T03:59:20.381Z,94259.00
2019-05-18T04:01:50.316Z,94265.00
2019-05-18T04:04:20.275Z,94259.00
2019-05-18T04:06:50.295Z,94255.00
2019-05-18T04:09:20.348Z,94265.00
2019-05-18T04:11:50.309Z,94261.00
2019-05-18T04:14:20.336Z,94261.00
2019-05-18T04:16:50.353Z,94260.00
2019-05-18T04:19:20.247Z,94271.00
2019-05-18T04:21:50.176Z,94266.00
2019-05-18T04:24:20.142Z,94268.00
2019-05-18T04:26:50.128Z,94277.00
2019-05-18T04:29:20.056Z,94278.00
2019-05-18T04:31:50.081Z,94270.00
2019-05-18T04:34:20.093Z,94274.00
2019-05-18T04:36:50.103Z,94281.00
2019-05-18T04:39:20.113Z,94279.00
2019-05-18T04:41:50.144Z,94272.00
2019-05-18T04:44:20.120Z,94268.00
2019-05-18T04:46:50.238Z,94277.00
2019-05-18T04:49:20.423Z,94265.00
2019-05-18T04:51:50.458Z,94264.00
2019-05-18T04:54:20.562Z,94265.00
2019-05-18T04:56:50.526Z,94264.00
2019-05-18T04:59:20.619Z,94269.00
2019-05-18T05:01:50.542Z,94273.00
2019-05-18T05:04:20.721Z,94280.00
2019-05-18T05:06:50.676Z,94272.00
2019-05-18T05:09:20.760Z,94263.00
2019-05-18T05:11:50.745Z,94261.00
2019-05-18T05:14:20.887Z,94261.00
2019-05-18T05:16:50.867Z,94271.00
2019-05-18T05:19:21.034Z,94269.00
2019-05-18T05:21:51.123Z,94270.00
2019-05-18T05:24:21.137Z,94271.00
2019-05-18T05:26:51.299Z,94281.00
2019-05-18T05:29:21.275Z,94276.00
2019-05-18T05:31:51.326Z,94281.00
2019-05-18T05:34:21.275Z,94275.00
2019-05-18T05:36:51.372Z,94262.00
2019-05-18T05:39:21.401Z,94275.00
2019-05-18T05:41:51.340Z,94274.00
2019-05-18T05:44:21.356Z,94278.00
2019-05-18T05:46:51.367Z,94279.00
2019-05-18T05:49:21.424Z,94283.00
2019-05-18T05:51:51.466Z,94270.00
2019-05-18T05:54:21.575Z,94285.00
2019-05-18T05:56:51.650Z,94289.00
2019-05-18T05:59:21.621Z,94287.00
2019-05-18T06:01:51.638Z,94285.00
2019-05-18T06:04:21.734Z,94283.00
2019-05-18T06:06:51.775Z,94287.00
2019-05-18T06:09:21.773Z,94292.00
2019-05-18T06:11:51.722Z,94291.00
2019-05-18T06:14:21.663Z,94291.00
2019-05-18T06:16:51.782Z,94288.00
2019-05-18T06:19:22.244Z,94277.00
2019-05-18T06:21:52.271Z,94287.00
2019-05-18T06:24:22.314Z,94286.00
2019-05-18T06:26:52.314Z,94280.00
2019-05-18T06:29:22.290Z,94280.00
2019-05-18T06:31:52.218Z,94287.00
2019-05-18T06:34:22.235Z,94288.00
2019-05-18T06:36:55.450Z,94289.00
2019-05-18T06:39:23.850Z,94291.00
2019-05-18T06:41:53.803Z,94281.00
2019-05-18T06:44:23.751Z,94291.00
2019-05-18T06:46:53.852Z,94294.00
2019-05-18T06:49:23.980Z,94286.00
2019-05-18T06:51:53.963Z,94285.00
2019-05-18T06:54:24.044Z,94288.00
2019-05-18T06:56:56.761Z,94290.00
2019-05-18T06:59:28.895Z,94282.00
2019-05-18T07:01:58.875Z,94290.00
2019-05-18T07:04:28.912Z,94289.00
2019-05-18T07:06:59.127Z,94288.00
2019-05-18T07:09:29.252Z,94289.00
2019-05-18T07:11:59.253Z,94291.00
2019-05-18T07:14:29.215Z,94297.00
2019-05-18T07:16:59.139Z,94284.00
2019-05-18T07:19:29.085Z,94286.00
2019-05-18T07:21:59.564Z,94276.00
2019-05-18T07:24:29.679Z,94292.00
2019-05-18T07:26:59.834Z,94278.00
2019-05-18T07:29:29.797Z,94282.00
2019-05-18T07:32:00.036Z,94278.00
2019-05-18T07:34:30.104Z,94278.00
2019-05-18T07:37:00.027Z,94270.00
2019-05-18T07:39:30.075Z,94272.00
2019-05-18T07:42:00.121Z,94267.00
2019-05-18T07:44:30.655Z,94277.00
2019-05-18T07:47:00.749Z,94274.00
2019-05-18T07:49:30.787Z,94267.00
2019-05-18T07:52:00.812Z,94267.00
2019-05-18T07:54:30.808Z,94275.00
2019-05-18T07:57:00.926Z,94274.00
2019-05-18T07:59:30.915Z,94271.00
2019-05-18T08:02:00.979Z,94278.00
2019-05-18T08:04:31.032Z,94279.00
2019-05-18T08:07:01.252Z,94285.00
2019-05-18T08:09:31.286Z,94273.00
2019-05-18T08:12:01.397Z,94269.00
2019-05-18T08:14:31.534Z,94273.00
2019-05-18T08:17:01.554Z,94276.00
2019-05-18T08:19:31.557Z,94277.00
2019-05-18T08:22:01.753Z,94273.00
2019-05-18T08:24:31.783Z,94270.00
2019-05-18T08:27:02.437Z,94260.00
2019-05-18T08:29:32.548Z,94270.00
2019-05-18T08:32:02.581Z,94271.00
2019-05-18T08:34:32.499Z,94264.00
2019-05-18T08:37:02.492Z,94274.00
2019-05-18T08:39:32.528Z,94262.00
2019-05-18T08:42:02.550Z,94264.00
2019-05-18T08:44:32.549Z,94260.00
2019-05-18T08:47:02.686Z,94264.00
2019-05-18T08:49:32.641Z,94257.00
2019-05-18T08:52:08.360Z,94251.00
2019-05-18T08:54:34.563Z,94257.00
2019-05-18T08:57:04.611Z,94261.00
2019-05-18T08:59:34.533Z,94255.00
2019-05-18T09:02:04.762Z,94258.00
2019-05-18T09:04:34.947Z,94250.00
2019-05-18T09:07:05.168Z,94256.00
2019-05-18T09:09:35.377Z,94259.00
2019-05-18T09:12:05.655Z,94253.00
2019-05-18T09:14:35.846Z,94259.00
2019-05-18T09:17:07.055Z,94264.00
2019-05-18T09:19:37.171Z,94259.00
2019-05-18T09:22:07.374Z,94261.00
2019-05-18T09:24:37.447Z,94259.00
2019-05-18T09:27:07.663Z,94256.00
2019-05-18T09:29:37.873Z,94254.00
2019-05-18T09:32:08.101Z,94254.00
2019-05-18T09:34:38.329Z,94257.00
2019-05-18T09:37:08.381Z,94256.00
2019-05-18T09:39:38.600Z,94256.00
2019-05-18T09:42:08.758Z,94253.00
2019-05-18T09:44:39.086Z,94258.00
2019-05-18T09:47:09.228Z,94260.00
2019-05-18T09:49:39.339Z,94260.00
2019-05-18T09:52:09.604Z,94262.00
2019-05-18T09:54:39.848Z,94259.00
2019-05-18T09:57:10.053Z,94260.00
2019-05-18T09:59:40.278Z,94258.00
2019-05-18T10:02:10.501Z,94254.00
2019-05-18T10:04:40.572Z,94259.00
2019-05-18T10:07:10.926Z,94254.00
2019-05-18T10:09:41.144Z,94261.00
2019-05-18T10:12:11.248Z,94257.00
2019-05-18T10:14:41.410Z,94257.00
2019-05-18T10:17:11.770Z,94254.00
2019-05-18T10:19:41.954Z,94254.00
2019-05-18T10:22:12.119Z,94258.00
2019-05-18T10:24:42.227Z,94256.00
2019-05-18T10:27:15.291Z,94252.00
2019-05-18T10:29:46.706Z,94247.00
2019-05-18T10:32:16.920Z,94252.00
2019-05-18T10:34:47.039Z,94245.00
2019-05-18T10:37:17.483Z,94244.00
2019-05-18T10:39:47.671Z,94245.00
2019-05-18T10:42:18.085Z,94244.00
2019-05-18T10:44:48.367Z,94241.00
2019-05-18T10:47:18.652Z,94234.00
2019-05-18T10:49:48.745Z,94243.00
2019-05-18T10:52:18.796Z,94236.00
2019-05-18T10:54:49.019Z,94236.00
2019-05-18T10:57:19.130Z,94235.00
2019-05-18T10:59:49.375Z,94226.00
2019-05-18T11:02:19.703Z,94228.00
2019-05-18T11:04:50.006Z,94223.00
2019-05-18T11:07:20.331Z,94221.00
2019-05-18T11:09:50.652Z,94221.00
2019-05-18T11:12:20.910Z,94214.00
2019-05-18T11:14:50.951Z,94210.00
2019-05-18T11:17:21.207Z,94214.00
2019-05-18T11:19:51.435Z,94210.00
2019-05-18T11:22:21.622Z,94213.00
2019-05-18T11:24:51.848Z,94214.00
2019-05-18T11:27:21.915Z,94214.00
2019-05-18T11:29:52.190Z,94215.00
2019-05-18T11:32:22.533Z,94213.00
2019-05-18T11:34:52.826Z,94216.00
2019-05-18T11:37:22.859Z,94209.00
2019-05-18T11:39:53.140Z,94208.00
2019-05-18T11:42:23.170Z,94218.00
2019-05-18T11:44:53.442Z,94226.00
2019-05-18T11:47:23.683Z,94223.00
2019-05-18T11:49:53.976Z,94214.00
2019-05-18T11:52:24.158Z,94213.00
2019-05-18T11:54:54.375Z,94208.00
2019-05-18T11:57:24.622Z,94207.00
2019-05-18T11:59:54.614Z,94212.00
2019-05-18T12:02:24.764Z,94203.00
2019-05-18T12:04:54.930Z,94198.00
2019-05-18T12:07:25.051Z,94199.00
2019-05-18T12:09:55.403Z,94202.00
2019-05-18T12:12:25.497Z,94185.00
2019-05-18T12:14:55.465Z,94181.00
2019-05-18T12:17:25.444Z,94178.00
2019-05-18T12:19:55.610Z,94186.00
2019-05-18T12:22:25.718Z,94179.00
2019-05-18T12:24:55.643Z,94189.00
2019-05-18T12:27:25.598Z,94188.00
2019-05-18T12:29:55.560Z,94187.00
2019-05-18T12:32:25.619Z,94181.00
2019-05-18T12:34:55.568Z,94176.00
2019-05-18T12:37:25.629Z,94172.00
2019-05-18T12:39:55.829Z,94173.00
2019-05-18T12:42:25.977Z,94172.00
2019-05-18T12:44:56.037Z,94168.00
2019-05-18T12:47:25.971Z,94177.00
2019-05-18T12:49:56.815Z,94169.00
2019-05-18T12:52:27.082Z,94168.00
2019-05-18T12:54:57.290Z,94165.00
2019-05-18T12:57:27.376Z,94172.00
2019-05-18T12:59:57.659Z,94177.00
2019-05-18T13:02:27.777Z,94171.00
2019-05-18T13:04:57.844Z,94173.00
2019-05-18T13:07:28.056Z,94167.00
2019-05-18T13:09:58.230Z,94164.00
2019-05-18T13:12:28.170Z,94168.00
2019-05-18T13:14:58.257Z,94160.00
2019-05-18T13:17:28.298Z,94160.00
2019-05-18T13:19:58.367Z,94163.00
2019-05-18T13:22:28.407Z,94157.00
2019-05-18T13:24:58.452Z,94156.00
2019-05-18T13:27:38.679Z,94158.00
2019-05-18T13:30:00.243Z,94150.00
2019-05-18T13:32:30.301Z,94147.00
2019-05-18T13:35:00.452Z,94150.00
2019-05-18T13:37:30.663Z,94155.00
2019-05-18T13:40:00.769Z,94152.00
2019-05-18T13:42:30.810Z,94145.00
2019-05-18T13:45:00.856Z,94147.00
2019-05-18T13:47:30.966Z,94145.00
2019-05-18T13:50:01.042Z,94138.00
2019-05-18T13:52:31.138Z,94138.00
2019-05-18T13:55:04.586Z,94141.00
2019-05-18T13:57:33.278Z,94140.00
2019-05-18T14:00:03.460Z,94136.00
2019-05-18T14:02:33.565Z,94139.00
2019-05-18T14:05:03.833Z,94135.00
2019-05-18T14:07:33.955Z,94129.00
2019-05-18T14:10:04.563Z,94134.00
2019-05-18T14:12:34.816Z,94128.00
2019-05-18T14:15:05.323Z,94123.00
2019-05-18T14:17:35.483Z,94132.00
2019-05-18T14:20:07.101Z,94119.00
2019-05-18T14:22:37.334Z,94127.00
2019-05-18T14:25:18.883Z,94122.00
2019-05-18T14:27:40.180Z,94125.00
2019-05-18T14:30:10.979Z,94122.00
2019-05-18T14:32:41.406Z,94126.00
2019-05-18T14:35:12.921Z,94126.00
2019-05-18T14:37:42.926Z,94126.00
2019-05-18T14:40:13.818Z,94122.00
2019-05-18T14:42:43.875Z,94118.00
2019-05-18T14:45:14.173Z,94119.00
2019-05-18T14:47:44.237Z,94119.00
2019-05-18T14:50:15.466Z,94126.00
2019-05-18T14:52:45.579Z,94115.00
2019-05-18T14:55:16.219Z,94123.00
2019-05-18T14:57:46.311Z,94120.00
2019-05-18T15:00:17.871Z,94119.00
2019-05-18T15:02:47.987Z,94128.00
2019-05-18T15:05:18.476Z,94119.00
2019-05-18T15:07:48.479Z,94112.00
2019-05-18T15:10:19.386Z,94121.00
2019-05-18T15:12:49.412Z,94116.00
2019-05-18T15:15:19.777Z,94118.00
2019-05-18T15:17:49.843Z,94112.00
2019-05-18T15:20:20.319Z,94115.00
2019-05-18T15:22:50.394Z,94119.00
2019-05-18T15:25:20.507Z,94105.00
2019-05-18T15:27:50.442Z,94105.00
2019-05-18T15:30:21.301Z,94107.00
2019-05-18T15:32:51.473Z,94096.00
2019-05-18T15:35:21.559Z,94096.00
2019-05-18T15:37:51.544Z,94097.00
2019-05-18T15:40:22.158Z,94092.00
2019-05-18T15:42:52.182Z,94096.00
2019-05-18T15:45:24.749Z,94095.00
2019-05-18T15:47:54.454Z,94098.00
2019-05-18T15:50:24.848Z,94093.00
2019-05-18T15:52:55.087Z,94094.00
2019-05-18T15:55:44.260Z,94089.00
2019-05-18T15:58:14.429Z,94090.00
2019-05-18T16:00:44.459Z,94093.00
2019-05-18T16:03:14.522Z,94093.00
2019-05-18T16:05:44.657Z,94083.00
2019-05-18T16:08:14.732Z,94087.00
2019-05-18T16:10:44.866Z,94091.00
2019-05-18T16:13:14.945Z,94093.00
2019-05-18T16:15:44.977Z,94093.00
2019-05-18T16:18:15.042Z,94091.00
2019-05-18T16:20:45.166Z,94088.00
2019-05-18T16:23:15.470Z,94086.00
2019-05-18T16:25:46.095Z,94086.00
2019-05-18T16:28:16.276Z,94087.00
2019-05-18T16:30:46.220Z,94086.00
2019-05-18T16:33:16.241Z,94084.00
2019-05-18T16:35:46.426Z,94084.00
2019-05-18T16:38:16.424Z,94084.00
2019-05-18T16:40:46.380Z,94095.00
2019-05-18T16:43:16.543Z,94088.00
2019-05-18T16:45:46.580Z,94088.00
2019-05-18T16:48:16.646Z,94085.00
2019-05-18T16:50:46.656Z,94088.00
2019-05-18T16:53:16.713Z,94085.00
2019-05-18T16:55:49.044Z,94092.00
2019-05-18T16:58:19.265Z,94085.00
2019-05-18T17:00:49.874Z,94085.00
2019-05-18T17:03:20.024Z,94085.00
2019-05-18T17:05:50.264Z,94078.00
2019-05-18T17:08:20.341Z,94090.00
2019-05-18T17:10:50.494Z,94079.00
2019-05-18T17:13:20.761Z,94084.00
2019-05-18T17:15:51.030Z,94086.00
2019-05-18T17:18:21.546Z,94089.00
2019-05-18T17:20:51.867Z,94097.00
2019-05-18T17:23:22.237Z,94087.00
2019-05-18T17:25:53.873Z,94095.00
2019-05-18T17:28:24.201Z,94093.00
2019-05-18T17:30:54.576Z,94102.00
2019-05-18T17:33:24.708Z,94093.00
2019-05-18T17:36:00.577Z,94092.00
2019-05-18T17:38:30.586Z,94092.00
2019-05-18T17:41:06.378Z,94094.00
2019-05-18T17:43:36.605Z,94100.00
2019-05-18T17:46:07.246Z,94095.00
2019-05-18T17:48:38.005Z,94099.00
2019-05-18T17:51:08.630Z,94097.00
2019-05-18T17:53:39.289Z,94095.00
2019-05-18T17:56:10.683Z,94099.00
2019-05-18T17:58:40.873Z,94095.00
2019-05-18T18:01:11.096Z,94093.00
2019-05-18T18:03:41.282Z,94099.00
2019-05-18T18:06:11.314Z,94101.00
2019-05-18T18:08:41.333Z,94100.00
2019-05-18T18:11:11.994Z,94101.00
2019-05-18T18:13:42.171Z,94108.00
2019-05-18T18:16:12.223Z,94105.00
2019-05-18T18:18:42.233Z,94105.00
2019-05-18T18:21:12.291Z,94110.00
2019-05-18T18:23:42.291Z,94118.00
2019-05-18T18:26:12.512Z,94116.00
2019-05-18T18:28:42.503Z,94114.00
2019-05-18T18:31:12.424Z,94116.00
2019-05-18T18:33:42.466Z,94118.00
2019-05-18T18:36:12.524Z,94111.00
2019-05-18T18:38:42.699Z,94114.00
2019-05-18T18:41:12.629Z,94123.00
2019-05-18T18:43:42.745Z,94119.00
2019-05-18T18:46:12.756Z,94123.00
2019-05-18T18:48:42.743Z,94115.00
2019-05-18T18:51:12.662Z,94133.00
2019-05-18T18:53:42.726Z,94129.00
2019-05-18T18:56:12.822Z,94131.00
2019-05-18T18:58:42.760Z,94126.00
2019-05-18T19:01:12.746Z,94121.00
2019-05-18T19:03:42.769Z,94130.00
2019-05-18T19:06:12.945Z,94128.00
2019-05-18T19:08:43.055Z,94127.00
2019-05-18T19:11:13.128Z,94139.00
2019-05-18T19:13:45.680Z,94138.00
2019-05-18T19:16:14.911Z,94138.00
2019-05-18T19:18:44.889Z,94148.00
2019-05-18T19:21:14.838Z,94152.00
2019-05-18T19:23:44.810Z,94154.00
2019-05-18T19:26:15.449Z,94155.00
2019-05-18T19:28:45.462Z,94152.00
2019-05-18T19:31:15.400Z,94150.00
2019-05-18T19:33:45.442Z,94145.00
2019-05-18T19:36:15.360Z,94152.00
2019-05-18T19:38:45.532Z,94147.00
2019-05-18T19:41:15.679Z,94152.00
2019-05-18T19:43:45.608Z,94154.00
2019-05-18T19:46:15.765Z,94151.00
2019-05-18T19:48:45.750Z,94159.00
2019-05-18T19:51:16.245Z,94153.00
2019-05-18T19:53:46.406Z,94158.00
2019-05-18T19:56:16.416Z,94155.00
2019-05-18T19:58:46.332Z,94150.00
2019-05-18T20:01:16.418Z,94157.00
2019-05-18T20:03:46.343Z,94160.00
2019-05-18T20:06:16.332Z,94157.00
2019-05-18T20:08:46.327Z,94159.00
2019-05-18T20:11:16.394Z,94166.00
2019-05-18T20:13:46.388Z,94157.00
2019-05-18T20:16:16.466Z,94149.00
2019-05-18T20:18:46.402Z,94152.00
2019-05-18T20:21:16.403Z,94147.00
2019-05-18T20:23:46.425Z,94153.00
2019-05-18T20:26:16.356Z,94140.00
2019-05-18T20:28:46.374Z,94150.00
2019-05-18T20:31:16.364Z,94157.00
2019-05-18T20:33:46.397Z,94153.00
2019-05-18T20:36:16.323Z,94151.00
2019-05-18T20:38:46.419Z,94157.00
2019-05-18T20:41:16.496Z,94154.00
2019-05-18T20:43:46.578Z,94157.00
2019-05-18T20:46:16.504Z,94153.00
2019-05-18T20:48:46.424Z,94159.00
2019-05-18T20:51:16.369Z,94153.00
2019-05-18T20:53:46.353Z,94150.00
2019-05-18T20:56:16.532Z,94154.00
2019-05-18T20:58:46.494Z,94149.00
2019-05-18T21:01:16.401Z,94144.00
2019-05-18T21:03:46.479Z,94151.00
2019-05-18T21:06:16.461Z,94152.00
2019-05-18T21:08:46.480Z,94147.00
2019-05-18T21:11:16.405Z,94149.00
2019-05-18T21:13:46.396Z,94152.00
2019-05-18T21:16:16.443Z,94148.00
2019-05-18T21:18:46.443Z,94144.00
2019-05-18T21:21:16.448Z,94154.00
2019-05-18T21:23:46.538Z,94150.00
2019-05-18T21:26:16.539Z,94145.00
2019-05-18T21:28:56.187Z,94144.00
2019-05-18T21:31:18.294Z,94148.00
2019-05-18T21:33:48.330Z,94145.00
2019-05-18T21:36:18.399Z,94143.00
2019-05-18T21:38:48.445Z,94138.00
2019-05-18T21:41:18.462Z,94131.00
2019-05-18T21:43:48.451Z,94124.00
2019-05-18T21:46:18.455Z,94139.00
2019-05-18T21:48:48.495Z,94138.00
2019-05-18T21:51:18.475Z,94130.00
2019-05-18T21:53:48.418Z,94137.00
2019-05-18T21:56:18.404Z,94136.00
2019-05-18T21:58:48.509Z,94133.00
2019-05-18T22:01:18.726Z,94130.00
2019-05-18T22:03:48.927Z,94124.00
2019-05-18T22:06:19.137Z,94131.00
2019-05-18T22:08:49.115Z,94129.00
2019-05-18T22:11:19.242Z,94132.00
2019-05-18T22:13:49.165Z,94130.00
2019-05-18T22:16:19.357Z,94133.00
2019-05-18T22:18:49.487Z,94123.00
2019-05-18T22:21:19.626Z,94118.00
2019-05-18T22:23:49.651Z,94123.00
2019-05-18T22:26:19.713Z,94118.00
2019-05-18T22:28:49.721Z,94122.00
2019-05-18T22:31:19.903Z,94117.00
2019-05-18T22:33:49.908Z,94111.00
2019-05-18T22:36:20.081Z,94122.00
2019-05-18T22:38:50.084Z,94106.00
2019-05-18T22:41:20.272Z,94107.00
2019-05-18T22:43:50.348Z,94105.00
2019-05-18T22:46:20.570Z,94104.00
2019-05-18T22:48:50.589Z,94110.00
2019-05-18T22:51:20.632Z,94114.00
2019-05-18T22:53:50.747Z,94110.00
2019-05-18T22:56:20.849Z,94097.00
2019-05-18T22:58:50.990Z,94095.00
2019-05-18T23:01:21.024Z,94101.00
2019-05-18T23:03:51.780Z,94102.00
2019-05-18T23:06:21.855Z,94101.00
2019-05-18T23:08:51.919Z,94090.00
2019-05-18T23:11:22.052Z,94091.00
2019-05-18T23:13:52.072Z,94081.00
2019-05-18T23:16:22.012Z,94086.00
2019-05-18T23:18:56.695Z,94083.00
2019-05-18T23:21:23.989Z,94083.00
2019-05-18T23:23:54.129Z,94088.00
2019-05-18T23:26:24.196Z,94083.00
2019-05-18T23:28:54.443Z,94093.00
2019-05-18T23:31:24.377Z,94084.00
2019-05-18T23:33:54.405Z,94092.00
2019-05-18T23:36:24.476Z,94086.00
2019-05-18T23:38:54.645Z,94091.00
2019-05-18T23:41:24.597Z,94087.00
2019-05-18T23:43:54.682Z,94086.00
2019-05-18T23:46:24.690Z,94084.00
2019-05-18T23:48:54.662Z,94083.00
2019-05-18T23:51:24.687Z,94080.00
2019-05-18T23:53:54.662Z,94081.00
2019-05-18T23:56:24.740Z,94078.00
2019-05-18T23:58:54.731Z,94080.00
